Tuesday, May 03, 2016
08:47 UTC
  |  Log In   |  Register Free
Airport Search:

Tyler Pounds Regional Airport
(KTYR)

FAA data valid effective Mar 31 2016 - May 26 2016 (unless otherwise noted).

 
 
 
 
 
 
 
 
 
 
 
 
 
 
Current Aviation Weather for KTYR

Weather Summary


The most recent METAR observation for TYR was updated at: 12:58 UTC
METAR for KTYR is not available. Closest METAR is for KJDD
KTYR  (most recent observation was updatred at 30:75 UTC)
030753Z AUTO 34003KT 10SM CLR 11/08 A3006 RMK AO2 SLP175 T01110083

KJDD  (23.8 nm SE)   (most recent observation was updated at 30:83 UTC)
030835Z AUTO 00000KT 10SM CLR 10/08 A3007 RMK AO2

KJSO  (30.6 nm NW)   (most recent observation was updated at 30:83 UTC)
030835Z AUTO 00000KT 10SM CLR 10/10 A3007 RMK AO2 T01060098

TAF for KTYR is not available.
KTYR
030532Z 0306/0406 33004KT P6SM SKC FM031500 36007KT P6SM SKC FM031800 36009KT P6SM FEW040 FM040000 35004KT P6SM SCT150 BKN250

GlobalAir.com is loading additional information.
 Current Weather at TYR
52.0 F° (11.1 C°)

Northwest winds at 4.6 mph
Pressure:
30.07 in
Humidity:
86%
Wind:
Northwest at 4.6 mph
Dew Point:
48.0 F° (8.9 C°)
Visibility:
10.00 mi
TYR NOAA Radar




Find All Airport Services Find A Hotel Find A Rental Car Find A Golf Course Find A Restaurant $100 Hamburger



Airport Weather Forecast for KTYR

Translated METAR for KTYR (0753 UTC)
METAR:
KTYR 030753Z AUTO 34003KT 10SM CLR 11/08 A3006 RMK AO2 SLP175 T01110083
Conditions at:
KTYR (Tyler Pounds Rgnl, TX) observed 0753 UTC 03 May 2016
Temperature:
11°C (51.8°F)
Dewpoint:
8°C (46.4°F) [RH = 81.8]
Pressure:
30.06 inches Hg (1017.9 mb)
pressure at sea level is 175 in Hg
Winds:
from the NNW (340 degrees) at 3.5 mph (3 knots: 1.5 m/s)
Visibility:
10 mile(s)
Ceiling:
at least 12,000 feet AGL
Clouds:
Clear below 12,000 feet AGL
Remarks:
site is un-manned
site is automated and HAS a precipitation sensor

Translated TAF for KTYR (Tyler Pounds Rgnl, TX) (0532 UTC)
TAF text:
KTYR 030532Z 0306/0406 33004KT P6SM SKC
Forecast period:
Tuesday May 03 2016 06:00 UTC - Wednesday May 04 2016 06:00 UTC
Forecast type:
FROM: standard forecast or significant change
Winds:
from the NNW (330 degrees) at 4.6 mph (4 knots: 2.1 m/s)
Visibility:
6 or more mile(s) (9.7+ km)
Ceiling:
at least 12,000 feet AGL
Clouds:
Clear Skies
Weather:
no significant weather observed at this time
TAF text:
FM031500 36007KT P6SM SKC
Forecast period:
Tuesday May 03 2016 15:00 UTC - Tuesday May 03 2016 18:00 UTC
Forecast type:
FROM: standard forecast or significant change
Winds:
from the N (360 degrees) at 8.1 mph (7 knots: 3.6 m/s)
Visibility:
6 or more mile(s) (9.7+ km)
Ceiling:
at least 12,000 feet AGL
Clouds:
Clear Skies
Weather:
no significant weather observed at this time
TAF text:
FM031800 36009KT P6SM FEW040
Forecast period:
Tuesday May 03 2016 18:00 UTC - Wednesday May 04 2016 00:00 UTC
Forecast type:
FROM: standard forecast or significant change
Winds:
from the N (360 degrees) at 10.4 mph (9 knots: 4.6 m/s)
Visibility:
6 or more mile(s) (9.7+ km)
Ceiling:
at least 12,000 feet AGL
Clouds:
Few Clouds at 4,000 feet AGL
Weather:
no significant weather observed at this time
TAF text:
FM040000 35004KT P6SM SCT150 BKN250
Forecast period:
Wednesday May 04 2016 00:00 UTC - Wednesday May 04 2016 06:00 UTC
Forecast type:
FROM: standard forecast or significant change
Winds:
from the N (350 degrees) at 4.6 mph (4 knots: 2.1 m/s)
Visibility:
6 or more mile(s) (9.7+ km)
Ceiling:
25,000 feet AGL
Clouds:
Scattered Clouds at 15,000 feet AGL
Broken Cloud Cover at 25,000 feet AGL
Weather:
no significant weather observed at this time
FBO's on the Field
FBO Company Facility Photos Services Transportation Aviation Fuel Prices: Prices include tax
Catering Weather Repair Courtesy Rental Type 100LL JetA JetA+ MOGAS 8087
 
Jet Center of Tyler

Currently rated 5 by 2 people
FS:Phillips 66
Last Updated: Apr-26
Login to update fuel prices
SS:
Contact Jet Center of TylerMore FBO Information
 
Johnson Aviation, Inc

Currently rated 5 by 3 people
FS:Avfuel
Last Updated: Apr-25
Login to update fuel prices
SS:
Contact Johnson Aviation, IncMore FBO Information
 
Add another FBO Facility Photos Catering Weather Repair Courtesy Rental Type 100LL JetA JetA+ MOGAS 8087
Services Transportation Aviation Fuel Prices: Prices include tax


model-print
model-print
model-print
model-print